createdAt,value
2019-03-13T00:00:48.383Z,54.03
2019-03-13T00:05:52.028Z,46.42
2019-03-13T00:10:55.384Z,52.33
2019-03-13T00:15:58.768Z,57.60
2019-03-13T00:21:02.593Z,41.98
2019-03-13T00:26:06.194Z,60.25
2019-03-13T00:31:10.078Z,66.75
2019-03-13T00:36:13.499Z,63.95
2019-03-13T00:41:17.671Z,70.52
2019-03-13T00:46:21.222Z,64.80
2019-03-13T00:51:24.964Z,75.40
2019-03-13T00:56:28.300Z,71.65
2019-03-13T01:01:42.854Z,77.75
2019-03-13T01:06:50.717Z,78.10
2019-03-13T01:11:55.854Z,78.65
2019-03-13T01:16:59.199Z,77.37
2019-03-13T01:22:02.614Z,74.72
2019-03-13T01:27:05.978Z,78.37
2019-03-13T01:32:22.346Z,70.40
2019-03-13T01:37:25.917Z,75.55
2019-03-13T01:42:31.800Z,79.10
2019-03-13T01:47:36.035Z,68.57
2019-03-13T01:52:39.692Z,76.72
2019-03-13T01:57:43.138Z,81.08
2019-03-13T02:02:46.579Z,74.12
2019-03-13T02:07:50.389Z,65.60
2019-03-13T02:12:55.718Z,71.55
2019-03-13T02:17:59.360Z,70.70
2019-03-13T02:23:02.754Z,60.88
2019-03-13T02:28:06.301Z,66.35
2019-03-13T02:33:10.481Z,47.95
2019-03-13T02:38:13.900Z,57.93
2019-03-13T02:43:17.257Z,55.20
2019-03-13T02:48:21.763Z,52.50
2019-03-13T02:53:25.109Z,52.90
2019-03-13T02:58:28.452Z,42.62
2019-03-13T03:03:45.616Z,35.17
2019-03-13T03:08:49.796Z,41.92
2019-03-13T03:13:53.319Z,50.65
2019-03-13T03:18:57.020Z,41.85
2019-03-13T03:24:01.175Z,46.92
2019-03-13T03:29:04.475Z,36.95
2019-03-13T03:34:07.957Z,37.60
2019-03-13T03:39:11.492Z,44.38
2019-03-13T03:44:14.837Z,47.43
2019-03-13T03:49:19.228Z,45.28
2019-03-13T03:54:22.529Z,49.10
2019-03-13T03:59:25.855Z,44.13
2019-03-13T04:04:29.729Z,38.63
2019-03-13T04:09:33.198Z,37.33
2019-03-13T04:14:36.864Z,39.27
2019-03-13T04:19:41.166Z,30.97
2019-03-13T04:24:44.959Z,29.52
2019-03-13T04:29:48.318Z,33.15
2019-03-13T04:34:52.425Z,35.85
2019-03-13T04:39:55.744Z,35.92
2019-03-13T04:44:59.185Z,33.40
2019-03-13T04:50:03.139Z,26.95
2019-03-13T04:55:06.788Z,32.53
2019-03-13T05:00:11.946Z,27.22
2019-03-13T05:06:22.957Z,24.92
2019-03-13T05:11:26.266Z,26.87
2019-03-13T05:16:29.541Z,24.35
2019-03-13T05:21:32.915Z,24.70
2019-03-13T05:26:36.258Z,23.45
2019-03-13T05:31:40.539Z,23.45
2019-03-13T05:36:44.634Z,20.17
2019-03-13T05:41:48.352Z,24.65
2019-03-13T05:46:52.347Z,18.95
2019-03-13T05:51:55.674Z,17.20
2019-03-13T05:56:58.998Z,17.98
2019-03-13T06:02:02.460Z,15.43
2019-03-13T06:07:06.888Z,16.12
2019-03-13T06:12:11.367Z,18.25
2019-03-13T06:17:14.670Z,17.15
2019-03-13T06:22:18.987Z,16.90
2019-03-13T06:27:22.478Z,18.52
2019-03-13T06:32:25.787Z,17.10
2019-03-13T06:37:29.198Z,19.42
2019-03-13T06:42:32.979Z,17.35
2019-03-13T06:47:37.035Z,18.30
2019-03-13T06:52:40.465Z,15.85
2019-03-13T06:57:44.260Z,19.77
2019-03-13T07:03:05.601Z,20.92
2019-03-13T07:08:26.865Z,14.07
2019-03-13T07:13:36.165Z,16.82
2019-03-13T07:18:57.162Z,18.57
2019-03-13T07:24:26.073Z,17.07
2019-03-13T07:29:46.296Z,16.70
2019-03-13T07:35:09.569Z,13.95
2019-03-13T07:40:28.183Z,13.03
2019-03-13T07:45:54.439Z,14.90
2019-03-13T07:51:13.058Z,15.93
2019-03-13T07:56:40.099Z,14.80
2019-03-13T08:01:56.228Z,11.63
2019-03-13T08:07:16.210Z,12.03
2019-03-13T08:12:45.437Z,14.87
2019-03-13T08:18:21.322Z,12.78
2019-03-13T08:23:38.269Z,13.00
2019-03-13T08:28:57.428Z,13.07
2019-03-13T08:34:21.071Z,15.72
2019-03-13T08:39:42.530Z,19.52
2019-03-13T08:45:08.239Z,17.87
2019-03-13T08:50:17.877Z,12.30
2019-03-13T08:55:31.438Z,12.53
2019-03-13T09:00:48.865Z,12.23
2019-03-13T09:06:09.603Z,12.35
2019-03-13T09:11:22.094Z,12.28
2019-03-13T09:16:38.630Z,10.03
2019-03-13T09:22:01.821Z,9.93
2019-03-13T09:27:31.306Z,10.80
2019-03-13T09:33:12.660Z,10.00
2019-03-13T09:38:47.512Z,10.40
2019-03-13T09:44:10.432Z,12.88
2019-03-13T09:49:22.827Z,13.03
2019-03-13T09:54:36.961Z,12.45
2019-03-13T10:00:06.295Z,14.18
2019-03-13T10:05:24.819Z,11.33
2019-03-13T10:10:52.518Z,11.20
2019-03-13T10:21:36.810Z,10.25
2019-03-13T10:27:12.152Z,11.48
2019-03-13T10:32:33.827Z,15.18
2019-03-13T10:37:55.789Z,14.38
2019-03-13T10:43:21.288Z,13.18
2019-03-13T10:48:46.994Z,13.25
2019-03-13T10:54:10.025Z,14.35
2019-03-13T10:59:25.118Z,16.17
2019-03-13T11:04:57.494Z,13.05
2019-03-13T11:10:26.461Z,9.13
2019-03-13T11:15:47.241Z,11.43
2019-03-13T11:21:02.021Z,9.58
2019-03-13T11:26:18.829Z,8.80
2019-03-13T11:31:40.710Z,4.97
2019-03-13T11:37:03.957Z,5.15
2019-03-13T11:42:25.797Z,5.85
2019-03-13T11:47:47.915Z,8.93
2019-03-13T11:53:05.810Z,5.72
2019-03-13T11:58:14.870Z,7.25
2019-03-13T12:03:55.875Z,7.92
2019-03-13T12:09:25.458Z,8.68
2019-03-13T12:14:37.204Z,9.08
2019-03-13T12:19:49.251Z,7.17
2019-03-13T12:25:17.914Z,10.60
2019-03-13T12:30:46.932Z,12.47
2019-03-13T12:36:12.427Z,8.25
2019-03-13T12:41:38.297Z,3.98
2019-03-13T12:47:03.391Z,3.65
2019-03-13T12:52:23.196Z,4.03
2019-03-13T12:57:33.527Z,2.33
2019-03-13T13:02:55.850Z,3.20
2019-03-13T13:08:12.177Z,4.62
2019-03-13T13:13:30.249Z,1.63
2019-03-13T13:18:47.746Z,4.37
2019-03-13T13:23:50.958Z,4.67
2019-03-13T13:28:54.988Z,2.67
2019-03-13T13:33:58.403Z,3.27
2019-03-13T13:39:04.252Z,1.82
2019-03-13T13:44:08.258Z,5.60
2019-03-13T13:49:11.575Z,3.33
2019-03-13T13:54:15.038Z,4.08
2019-03-13T13:59:18.403Z,3.87
2019-03-13T14:04:22.537Z,1.00
2019-03-13T14:09:26.204Z,5.00
2019-03-13T14:14:29.864Z,4.47
2019-03-13T14:19:33.895Z,3.80
2019-03-13T14:24:37.204Z,5.33
2019-03-13T14:29:41.707Z,6.40
2019-03-13T14:34:45.332Z,5.22
2019-03-13T14:39:48.741Z,4.80
2019-03-13T14:44:52.072Z,5.17
2019-03-13T14:49:56.023Z,5.28
2019-03-13T14:54:59.393Z,4.55
2019-03-13T15:00:04.892Z,2.85
2019-03-13T15:05:08.580Z,8.45
2019-03-13T15:10:13.071Z,8.63
2019-03-13T15:15:17.319Z,6.33
2019-03-13T15:20:20.992Z,6.22
2019-03-13T15:25:25.132Z,6.83
2019-03-13T15:30:28.574Z,13.35
2019-03-13T15:35:31.914Z,8.05
2019-03-13T15:40:36.243Z,4.58
2019-03-13T15:45:41.008Z,7.62
2019-03-13T15:50:44.608Z,9.05
2019-03-13T15:55:48.376Z,6.95
2019-03-13T16:00:53.518Z,8.15
2019-03-13T16:05:57.235Z,6.62
2019-03-13T16:11:00.675Z,5.65
2019-03-13T16:16:04.580Z,11.05
2019-03-13T16:21:08.438Z,10.72
2019-03-13T16:26:12.329Z,6.60
2019-03-13T16:31:15.856Z,6.87
2019-03-13T16:36:21.126Z,10.35
2019-03-13T16:41:24.421Z,8.78
2019-03-13T16:46:28.460Z,13.43
2019-03-13T16:51:31.869Z,12.88
2019-03-13T16:56:36.486Z,21.85
2019-03-13T17:01:40.382Z,30.57
2019-03-13T17:06:43.719Z,23.45
2019-03-13T17:11:47.021Z,16.10
2019-03-13T17:16:50.518Z,17.35
2019-03-13T17:21:54.221Z,20.08
2019-03-13T17:26:58.016Z,21.05
2019-03-13T17:32:02.230Z,25.90
2019-03-13T17:37:05.715Z,22.35
2019-03-13T17:42:09.859Z,24.75
2019-03-13T17:47:13.928Z,31.75
2019-03-13T17:52:19.613Z,28.80
2019-03-13T17:57:23.665Z,22.82
2019-03-13T18:02:40.492Z,29.35
2019-03-13T18:07:44.389Z,32.80
2019-03-13T18:12:47.804Z,28.05
2019-03-13T18:17:51.215Z,31.95
2019-03-13T18:22:55.025Z,33.85
2019-03-13T18:27:59.391Z,37.35
2019-03-13T18:33:03.850Z,33.65
2019-03-13T18:38:07.928Z,37.63
2019-03-13T18:43:12.633Z,36.98
2019-03-13T18:48:16.868Z,33.02
2019-03-13T18:53:20.429Z,34.00
2019-03-13T18:58:24.119Z,33.85
2019-03-13T19:03:28.636Z,36.93
2019-03-13T19:08:32.043Z,34.27
2019-03-13T19:13:35.880Z,30.75
2019-03-13T19:18:40.490Z,25.20
2019-03-13T19:23:43.874Z,28.05
2019-03-13T19:29:10.281Z,29.10
2019-03-13T19:34:13.705Z,32.23
2019-03-13T19:39:17.886Z,28.55
2019-03-13T19:44:21.292Z,28.17
2019-03-13T19:49:24.600Z,24.77
2019-03-13T19:54:27.998Z,26.10
2019-03-13T19:59:32.552Z,26.40
2019-03-13T20:04:46.815Z,24.80
2019-03-13T20:09:41.386Z,30.60
2019-03-13T20:14:45.099Z,32.53
2019-03-13T20:19:48.457Z,31.35
2019-03-13T20:24:52.698Z,32.10
2019-03-13T20:29:56.541Z,29.55
2019-03-13T20:35:00.372Z,23.45
2019-03-13T20:40:06.020Z,34.08
2019-03-13T20:45:12.548Z,26.25
2019-03-13T20:50:15.921Z,28.27
2019-03-13T20:55:19.910Z,30.27
2019-03-13T21:00:23.884Z,28.07
2019-03-13T21:05:27.307Z,28.02
2019-03-13T21:10:31.385Z,32.23
2019-03-13T21:15:34.842Z,28.02
2019-03-13T21:20:38.360Z,25.10
2019-03-13T21:25:41.584Z,27.60
2019-03-13T21:30:45.175Z,25.25
2019-03-13T21:35:49.236Z,25.17
2019-03-13T21:40:53.071Z,22.80
2019-03-13T21:45:59.057Z,23.70
2019-03-13T21:51:02.532Z,22.10
2019-03-13T21:56:05.889Z,23.83
2019-03-13T22:01:19.361Z,22.15
2019-03-13T22:06:27.576Z,18.25
2019-03-13T22:11:20.357Z,18.80
2019-03-13T22:16:24.078Z,19.85
2019-03-13T22:21:27.378Z,19.42
2019-03-13T22:26:31.200Z,21.87
2019-03-13T22:31:34.534Z,23.45
2019-03-13T22:36:38.424Z,23.22
2019-03-13T22:41:42.938Z,21.85
2019-03-13T22:46:46.257Z,23.67
2019-03-13T22:51:50.357Z,19.27
2019-03-13T22:56:53.684Z,22.42
2019-03-13T23:01:57.835Z,19.95
2019-03-13T23:07:02.333Z,22.02
2019-03-13T23:12:06.068Z,18.82
2019-03-13T23:17:09.393Z,20.05
2019-03-13T23:22:12.699Z,19.07
2019-03-13T23:27:16.235Z,19.07
2019-03-13T23:32:19.533Z,19.62
2019-03-13T23:37:22.872Z,18.45
2019-03-13T23:42:29.012Z,19.95
2019-03-13T23:47:32.790Z,17.40
2019-03-13T23:52:36.221Z,16.90
2019-03-13T23:57:40.405Z,17.60
